Wilson Maas — 8PSZ — position and weather

sailwx.info

Track history (hours):
 
Tides and Currents Weather Stations Pressure Air Temp Water Temp Dewpoint Dewpoint Depression Visibility Wind Speed Wind Dir Waves Ship Positions

Wilson Maas

Last reported at 2015-Aug-29 09:28 UTC. Time now 2015-Aug-31 10:55 UTC.
Position N 66°14' E 012°36'.

Length 78 m; draft 3.1 m.

Type: Cargo ship. MMSI: 314217000.

Date/timePositionNaut miles runAvg speedWind from/ knotsBaromVisibWave heightAir tempDewpointWater temp
2015-Aug-29 09:28N 66°14' E 012°36'1010.9
2015-Aug-29 08:32N 66°17' E 012°11'174 9.0
2015-Aug-28 13:17N 63°40' E 009°16'6 8.6
2015-Aug-28 12:33N 63°37' E 009°29'8 8.3
2015-Aug-28 11:33N 63°37' E 009°47'10 9.9
2015-Aug-28 10:33N 63°29' E 009°59'10 9.9
2015-Aug-28 09:33N 63°28' E 010°21'3 2.4
2015-Aug-28 08:31N 63°27' E 010°25'0 0.0
2015-Aug-28 07:31N 63°27' E 010°25'0 0.0
2015-Aug-28 06:31N 63°27' E 010°25'0 0.0
2015-Aug-28 05:31N 63°27' E 010°25'0 0.0
2015-Aug-28 04:31N 63°27' E 010°25'0 0.0
2015-Aug-28 03:31N 63°27' E 010°25'0 0.0
2015-Aug-28 02:31N 63°27' E 010°25'0 0.0
2015-Aug-28 01:31N 63°27' E 010°25'0 0.0
2015-Aug-28 00:31N 63°27' E 010°25'0 0.0
2015-Aug-27 23:31N 63°27' E 010°25'0 0.0
2015-Aug-27 22:31N 63°27' E 010°25'2 1.6
2015-Aug-27 21:34N 63°28' E 010°24'1010.3
2015-Aug-27 20:33N 63°28' E 010°01'10 9.8
2015-Aug-27 19:33N 63°36' E 009°48'7 7.2
2015-Aug-27 18:33N 63°37' E 009°32'  
2015-Aug-24 23:09N 59°11' E 004°44'711.3
2015-Aug-24 22:33N 59°05' E 004°48'1110.7
2015-Aug-24 21:34N 58°54' E 004°54'281 8.8
2015-Aug-23 13:33N 54°13' E 005°15'9 9.0
2015-Aug-23 12:32N 54°05' E 005°09'9 9.4
2015-Aug-23 11:33N 53°56' E 005°04'10 9.6
2015-Aug-23 10:32N 53°47' E 004°58'10 9.9
2015-Aug-23 09:33N 53°38' E 004°51'1010.0
2015-Aug-23 08:33N 53°29' E 004°45'1010.2
2015-Aug-23 07:32N 53°19' E 004°37'58 9.3
2015-Aug-23 01:19N 52°28' E 003°54'7 9.2
2015-Aug-23 00:32N 52°21' E 003°52'9 9.6
2015-Aug-22 23:33N 52°11' E 003°54'1010.3
2015-Aug-22 22:33N 52°02' E 003°59'1111.2
2015-Aug-22 21:33N 51°55' E 004°14'7 6.6
2015-Aug-22 20:33N 51°55' E 004°25'0 0.0
2015-Aug-22 18:33N 51°55' E 004°25'0 0.0
2015-Aug-22 17:33N 51°55' E 004°25'0 0.0
2015-Aug-22 16:33N 51°55' E 004°25'0 0.0
2015-Aug-22 15:33N 51°55' E 004°25'0 0.0
2015-Aug-22 14:34N 51°55' E 004°25'0 0.0
2015-Aug-22 13:33N 51°55' E 004°25'0 0.0
2015-Aug-22 12:33N 51°55' E 004°25'0 0.0
2015-Aug-22 11:33N 51°55' E 004°25'0 0.0
2015-Aug-22 10:33N 51°55' E 004°25'0 0.0
2015-Aug-22 09:33N 51°55' E 004°25'0 0.0
2015-Aug-22 08:33N 51°55' E 004°25'0 0.0
2015-Aug-22 07:33N 51°55' E 004°25'0 0.0
2015-Aug-22 06:34N 51°55' E 004°25'0 0.0
2015-Aug-22 05:33N 51°55' E 004°25'2 1.6
2015-Aug-22 04:33N 51°54' E 004°27'8 7.8
2015-Aug-22 03:33N 51°51' E 004°39'9 9.5
2015-Aug-22 02:33N 51°49' E 004°54'1110.7
2015-Aug-22 01:34N 51°49' E 005°11'10 8.7
2015-Aug-22 00:23N 51°53' E 005°26'4 0.1
2015-Aug-20 19:28N 51°54' E 005°32'6 6.0
2015-Aug-20 18:32N 51°51' E 005°25'6 6.0
2015-Aug-20 17:33N 51°49' E 005°16'8 7.8
2015-Aug-20 16:33N 51°49' E 005°03'9 9.4
2015-Aug-20 15:33N 51°49' E 004°48'8 7.8
2015-Aug-20 14:33N 51°53' E 004°37'7 7.3
2015-Aug-20 13:33N 51°54' E 004°26'0 0.5
2015-Aug-20 12:33N 51°54' E 004°25'0 0.0
2015-Aug-20 11:30N 51°54' E 004°25'0 0.0
2015-Aug-20 10:33N 51°54' E 004°25'0 0.0
2015-Aug-20 09:33N 51°54' E 004°25'0 0.0
2015-Aug-20 08:30N 51°54' E 004°25'0 0.0
2015-Aug-20 07:27N 51°54' E 004°25'0 0.0
2015-Aug-20 06:33N 51°54' E 004°25'0 0.0
2015-Aug-20 05:33N 51°54' E 004°25'0 0.0
2015-Aug-20 04:33N 51°54' E 004°25'0 0.0
2015-Aug-20 03:33N 51°54' E 004°25'0 0.0
2015-Aug-20 02:33N 51°54' E 004°25'0 0.0
2015-Aug-20 01:33N 51°54' E 004°25'0 0.0
2015-Aug-20 00:33N 51°54' E 004°25'0 0.0
2015-Aug-19 23:33N 51°54' E 004°25'0 0.0
2015-Aug-19 22:33N 51°54' E 004°25'2 2.0
2015-Aug-19 21:32N 51°54' E 004°28'0 0.0
2015-Aug-19 20:32N 51°54' E 004°28'0 0.0
2015-Aug-19 19:32N 51°54' E 004°28'0 0.0
2015-Aug-19 18:32N 51°54' E 004°28'0 0.0
2015-Aug-19 17:32N 51°54' E 004°28'0 0.0
2015-Aug-19 16:32N 51°54' E 004°28'0 0.0
2015-Aug-19 15:32N 51°54' E 004°28'0 0.0
2015-Aug-19 14:34N 51°54' E 004°28'7 6.5
2015-Aug-19 13:33N 51°54' E 004°18'8 7.9
2015-Aug-19 12:34N 51°58' E 004°07'8 8.3
2015-Aug-19 11:33N 52°00' E 003°54'8 7.7
2015-Aug-19 10:32N 52°06' E 003°46'  
Track history (hours):
 
Tides and Currents Weather Stations Pressure Air Temp Water Temp Dewpoint Dewpoint Depression Visibility Wind Speed Wind Dir Waves Ship Positions

Wilson Maas

Last reported at 2015-Aug-29 09:28 UTC. Time now 2015-Aug-31 10:55 UTC.
Position N 66°14' E 012°36'.

Length 78 m; draft 3.1 m.

Type: Cargo ship. MMSI: 314217000.

Date/timePositionNaut miles runAvg speedWind from/ knotsBaromVisibWave heightAir tempDewpointWater temp
2015-Aug-29 09:28N 66°14' E 012°36'1010.9
2015-Aug-29 08:32N 66°17' E 012°11'174 9.0
2015-Aug-28 13:17N 63°40' E 009°16'6 8.6
2015-Aug-28 12:33N 63°37' E 009°29'8 8.3
2015-Aug-28 11:33N 63°37' E 009°47'10 9.9
2015-Aug-28 10:33N 63°29' E 009°59'10 9.9
2015-Aug-28 09:33N 63°28' E 010°21'3 2.4
2015-Aug-28 08:31N 63°27' E 010°25'0 0.0
2015-Aug-28 07:31N 63°27' E 010°25'0 0.0
2015-Aug-28 06:31N 63°27' E 010°25'0 0.0
2015-Aug-28 05:31N 63°27' E 010°25'0 0.0
2015-Aug-28 04:31N 63°27' E 010°25'0 0.0
2015-Aug-28 03:31N 63°27' E 010°25'0 0.0
2015-Aug-28 02:31N 63°27' E 010°25'0 0.0
2015-Aug-28 01:31N 63°27' E 010°25'0 0.0
2015-Aug-28 00:31N 63°27' E 010°25'0 0.0
2015-Aug-27 23:31N 63°27' E 010°25'0 0.0
2015-Aug-27 22:31N 63°27' E 010°25'2 1.6
2015-Aug-27 21:34N 63°28' E 010°24'1010.3
2015-Aug-27 20:33N 63°28' E 010°01'10 9.8
2015-Aug-27 19:33N 63°36' E 009°48'7 7.2
2015-Aug-27 18:33N 63°37' E 009°32'  
2015-Aug-24 23:09N 59°11' E 004°44'711.3
2015-Aug-24 22:33N 59°05' E 004°48'1110.7
2015-Aug-24 21:34N 58°54' E 004°54'281 8.8
2015-Aug-23 13:33N 54°13' E 005°15'9 9.0
2015-Aug-23 12:32N 54°05' E 005°09'9 9.4
2015-Aug-23 11:33N 53°56' E 005°04'10 9.6
2015-Aug-23 10:32N 53°47' E 004°58'10 9.9
2015-Aug-23 09:33N 53°38' E 004°51'1010.0
2015-Aug-23 08:33N 53°29' E 004°45'1010.2
2015-Aug-23 07:32N 53°19' E 004°37'58 9.3
2015-Aug-23 01:19N 52°28' E 003°54'7 9.2
2015-Aug-23 00:32N 52°21' E 003°52'9 9.6
2015-Aug-22 23:33N 52°11' E 003°54'1010.3
2015-Aug-22 22:33N 52°02' E 003°59'1111.2
2015-Aug-22 21:33N 51°55' E 004°14'7 6.6
2015-Aug-22 20:33N 51°55' E 004°25'0 0.0
2015-Aug-22 18:33N 51°55' E 004°25'0 0.0
2015-Aug-22 17:33N 51°55' E 004°25'0 0.0
2015-Aug-22 16:33N 51°55' E 004°25'0 0.0
2015-Aug-22 15:33N 51°55' E 004°25'0 0.0
2015-Aug-22 14:34N 51°55' E 004°25'0 0.0
2015-Aug-22 13:33N 51°55' E 004°25'0 0.0
2015-Aug-22 12:33N 51°55' E 004°25'0 0.0
2015-Aug-22 11:33N 51°55' E 004°25'0 0.0
2015-Aug-22 10:33N 51°55' E 004°25'0 0.0
2015-Aug-22 09:33N 51°55' E 004°25'0 0.0
2015-Aug-22 08:33N 51°55' E 004°25'0 0.0
2015-Aug-22 07:33N 51°55' E 004°25'0 0.0
2015-Aug-22 06:34N 51°55' E 004°25'0 0.0
2015-Aug-22 05:33N 51°55' E 004°25'2 1.6
2015-Aug-22 04:33N 51°54' E 004°27'8 7.8
2015-Aug-22 03:33N 51°51' E 004°39'9 9.5
2015-Aug-22 02:33N 51°49' E 004°54'1110.7
2015-Aug-22 01:34N 51°49' E 005°11'10 8.7
2015-Aug-22 00:23N 51°53' E 005°26'4 0.1
2015-Aug-20 19:28N 51°54' E 005°32'6 6.0
2015-Aug-20 18:32N 51°51' E 005°25'6 6.0
2015-Aug-20 17:33N 51°49' E 005°16'8 7.8
2015-Aug-20 16:33N 51°49' E 005°03'9 9.4
2015-Aug-20 15:33N 51°49' E 004°48'8 7.8
2015-Aug-20 14:33N 51°53' E 004°37'7 7.3
2015-Aug-20 13:33N 51°54' E 004°26'0 0.5
2015-Aug-20 12:33N 51°54' E 004°25'0 0.0
2015-Aug-20 11:30N 51°54' E 004°25'0 0.0
2015-Aug-20 10:33N 51°54' E 004°25'0 0.0
2015-Aug-20 09:33N 51°54' E 004°25'0 0.0
2015-Aug-20 08:30N 51°54' E 004°25'0 0.0
2015-Aug-20 07:27N 51°54' E 004°25'0 0.0
2015-Aug-20 06:33N 51°54' E 004°25'0 0.0
2015-Aug-20 05:33N 51°54' E 004°25'0 0.0
2015-Aug-20 04:33N 51°54' E 004°25'0 0.0
2015-Aug-20 03:33N 51°54' E 004°25'0 0.0
2015-Aug-20 02:33N 51°54' E 004°25'0 0.0
2015-Aug-20 01:33N 51°54' E 004°25'0 0.0
2015-Aug-20 00:33N 51°54' E 004°25'0 0.0
2015-Aug-19 23:33N 51°54' E 004°25'0 0.0
2015-Aug-19 22:33N 51°54' E 004°25'2 2.0
2015-Aug-19 21:32N 51°54' E 004°28'0 0.0
2015-Aug-19 20:32N 51°54' E 004°28'0 0.0
2015-Aug-19 19:32N 51°54' E 004°28'0 0.0
2015-Aug-19 18:32N 51°54' E 004°28'0 0.0
2015-Aug-19 17:32N 51°54' E 004°28'0 0.0
2015-Aug-19 16:32N 51°54' E 004°28'0 0.0
2015-Aug-19 15:32N 51°54' E 004°28'0 0.0
2015-Aug-19 14:34N 51°54' E 004°28'7 6.5
2015-Aug-19 13:33N 51°54' E 004°18'8 7.9
2015-Aug-19 12:34N 51°58' E 004°07'8 8.3
2015-Aug-19 11:33N 52°00' E 003°54'8 7.7
2015-Aug-19 10:32N 52°06' E 003°46'  

Dump ship's entire track history